Time;durP1;ratioP1;P1;durP2;ratioP2;P2;SDS_P1;SDS_P2;PMS_P1;PMS_P2;Temp;Humidity;BMP_temperature;BMP_pressure;BME280_temperature;BME280_humidity;BME280_pressure;Samples;Min_cycle;Max_cycle;Signal;HPM_P1;HPM_P2
2022/04/25 00:01:34;;;;;;;114.80;43.33;;;9.60;99.90;;;;;;5093171;28;20537;-56
2022/04/25 00:04:00;;;;;;;91.53;37.20;;;9.70;99.90;;;;;;5077789;28;20520;-56
2022/04/25 00:06:26;;;;;;;88.32;34.08;;;9.60;99.90;;;;;;5078065;28;20031;-56
2022/04/25 00:08:52;;;;;;;79.97;31.77;;;9.70;99.90;;;;;;5078069;28;20021;-56
2022/04/25 00:11:18;;;;;;;87.68;34.55;;;9.70;99.90;;;;;;5098368;28;20027;-56
2022/04/25 00:13:44;;;;;;;75.57;30.05;;;9.70;99.90;;;;;;5098325;28;20028;-56
2022/04/25 00:16:10;;;;;;;83.65;33.05;;;9.80;99.90;;;;;;5098532;28;20023;-56
2022/04/25 00:18:37;;;;;;;120.80;44.58;;;9.70;99.90;;;;;;5098248;28;20028;-56
2022/04/25 00:21:03;;;;;;;107.82;40.20;;;9.80;99.90;;;;;;5098097;28;20101;-56
2022/04/25 00:23:29;;;;;;;72.75;30.48;;;9.90;99.90;;;;;;5098614;28;20085;-56
2022/04/25 00:25:55;;;;;;;64.22;27.63;;;9.90;99.90;;;;;;5097990;28;20024;-56
2022/04/25 00:28:21;;;;;;;70.43;25.98;;;10.00;99.90;;;;;;5098230;28;20024;-56
2022/04/25 00:30:47;;;;;;;68.50;27.77;;;10.00;99.90;;;;;;5098163;28;20115;-56
2022/04/25 00:33:14;;;;;;;77.55;30.02;;;10.00;99.90;;;;;;5098115;28;20036;-56
2022/04/25 00:35:39;;;;;;;73.32;30.63;;;10.00;99.90;;;;;;5098240;28;20031;-57
2022/04/25 00:38:05;;;;;;;63.88;26.45;;;10.10;99.90;;;;;;5097704;28;20416;-56
2022/04/25 00:40:32;;;;;;;63.90;25.63;;;10.10;99.90;;;;;;5097811;28;20046;-56
2022/04/25 00:42:57;;;;;;;68.28;26.25;;;10.20;99.90;;;;;;5097845;28;20051;-56
2022/04/25 00:45:23;;;;;;;67.13;29.27;;;10.10;99.90;;;;;;5097615;28;20062;-56
2022/04/25 00:47:49;;;;;;;65.05;28.95;;;10.10;99.90;;;;;;5097641;28;20473;-56
2022/04/25 00:50:15;;;;;;;72.72;28.17;;;10.10;99.90;;;;;;5097647;28;20020;-56
2022/04/25 00:52:42;;;;;;;62.15;25.48;;;10.10;99.90;;;;;;5097560;28;20031;-56
2022/04/25 00:55:10;;;;;;;57.53;21.58;;;10.20;99.90;;;;;;5097571;28;20056;-57
2022/04/25 00:57:37;;;;;;;55.58;21.73;;;10.20;99.90;;;;;;5097659;28;20089;-56
2022/04/25 01:00:11;;;;;;;48.28;22.17;;;10.20;99.90;;;;;;5097151;28;20036;-56
2022/04/25 01:02:37;;;;;;;60.08;21.63;;;10.10;99.90;;;;;;5083388;28;20032;-56
2022/04/25 01:05:05;;;;;;;57.35;23.75;;;10.10;99.90;;;;;;5077098;28;20033;-56
2022/04/25 01:07:34;;;;;;;53.10;22.00;;;10.20;99.90;;;;;;5076814;28;20478;-56
2022/04/25 01:10:00;;;;;;;62.25;22.25;;;10.20;99.90;;;;;;5086290;28;20024;-56
2022/04/25 01:12:27;;;;;;;55.65;22.63;;;10.20;99.90;;;;;;5097163;28;20487;-56
2022/04/25 01:15:05;;;;;;;51.20;22.45;;;10.20;99.90;;;;;;5097395;28;20031;-56
2022/04/25 01:17:31;;;;;;;54.25;22.95;;;10.20;99.90;;;;;;5097118;28;20477;-56
2022/04/25 01:19:57;;;;;;;53.03;21.95;;;10.30;99.90;;;;;;5096816;28;20039;-56
2022/04/25 01:22:35;;;;;;;39.13;16.83;;;10.20;99.90;;;;;;5097410;28;20040;-56
2022/04/25 01:27:46;;;;;;;36.90;14.77;;;10.10;99.90;;;;;;5096691;28;20066;-56
2022/04/25 01:30:11;;;;;;;49.35;16.15;;;10.20;99.90;;;;;;5096976;28;20440;-56
2022/04/25 01:32:38;;;;;;;41.38;15.40;;;10.20;99.90;;;;;;5096874;28;20019;-56
2022/04/25 01:35:05;;;;;;;41.20;16.63;;;10.20;99.90;;;;;;5096791;28;20024;-56
2022/04/25 01:37:31;;;;;;;39.90;14.45;;;10.20;99.90;;;;;;5096502;28;20024;-56
2022/04/25 01:39:58;;;;;;;37.03;14.75;;;10.30;99.90;;;;;;5096686;28;20039;-56
2022/04/25 01:42:24;;;;;;;48.58;15.95;;;10.30;99.90;;;;;;5096889;28;20145;-56
2022/04/25 01:44:51;;;;;;;53.55;17.27;;;10.30;99.90;;;;;;5096510;28;20425;-56
2022/04/25 01:47:18;;;;;;;54.92;17.95;;;10.30;99.90;;;;;;5096522;28;20377;-56
2022/04/25 01:49:44;;;;;;;67.43;20.92;;;10.20;99.90;;;;;;5096373;28;20025;-56
2022/04/25 01:52:31;;;;;;;56.85;21.58;;;10.20;99.90;;;;;;5096418;28;20024;-57
2022/04/25 01:54:59;;;;;;;56.85;21.58;;;10.20;99.90;;;;;;5096657;28;20485;-57
2022/04/25 01:57:25;;;;;;;60.30;21.08;;;10.30;99.90;;;;;;5096221;28;20027;-56
2022/04/25 01:59:52;;;;;;;67.47;22.52;;;10.30;99.90;;;;;;5096290;28;20386;-57
2022/04/25 02:02:18;;;;;;;64.47;21.05;;;10.40;99.90;;;;;;5066862;28;20067;-57
2022/04/25 02:04:44;;;;;;;60.17;21.08;;;10.50;99.90;;;;;;5075789;28;20417;-57
2022/04/25 02:07:11;;;;;;;58.97;20.20;;;10.60;99.90;;;;;;5075932;28;20039;-56
2022/04/25 02:09:38;;;;;;;63.80;21.48;;;10.60;99.90;;;;;;5081909;28;20024;-57
2022/04/25 02:12:05;;;;;;;61.78;20.48;;;10.60;99.90;;;;;;5096053;28;20031;-57
2022/04/25 02:14:32;;;;;;;44.08;15.65;;;10.60;99.90;;;;;;5095840;28;20027;-56
2022/04/25 02:17:01;;;;;;;49.13;16.85;;;10.70;99.90;;;;;;5095453;28;20020;-57
2022/04/25 02:19:28;;;;;;;58.08;19.67;;;10.70;99.90;;;;;;5095962;28;20024;-57
2022/04/25 02:21:56;;;;;;;52.05;15.70;;;10.80;99.90;;;;;;5095723;28;20035;-56
2022/04/25 02:24:22;;;;;;;41.22;14.88;;;10.80;99.90;;;;;;5095838;28;20044;-57
2022/04/25 02:26:49;;;;;;;27.80;8.90;;;10.80;99.90;;;;;;5095736;28;20505;-57
2022/04/25 02:29:16;;;;;;;37.88;11.88;;;10.90;99.90;;;;;;5095603;28;20119;-57
2022/04/25 02:31:42;;;;;;;35.22;12.10;;;11.00;99.90;;;;;;5095443;28;20021;-57
2022/04/25 02:34:08;;;;;;;27.90;8.80;;;11.00;99.90;;;;;;5095589;28;20024;-57
2022/04/25 02:36:35;;;;;;;28.90;8.15;;;11.00;99.90;;;;;;5095519;28;20078;-56
2022/04/25 02:39:01;;;;;;;21.85;6.80;;;11.00;99.90;;;;;;5095634;28;20028;-57
2022/04/25 02:41:27;;;;;;;24.05;4.22;;;11.10;99.90;;;;;;5095528;28;20040;-56
2022/04/25 02:43:53;;;;;;;15.15;3.35;;;11.10;99.90;;;;;;5095675;28;20026;-57
2022/04/25 02:46:19;;;;;;;14.82;3.60;;;11.20;99.90;;;;;;5095525;28;20390;-56
2022/04/25 02:48:46;;;;;;;16.75;3.92;;;11.20;99.90;;;;;;5095148;28;20027;-57
2022/04/25 02:51:14;;;;;;;11.10;3.13;;;11.30;99.90;;;;;;5095414;28;20539;-57
2022/04/25 02:53:40;;;;;;;6.90;2.42;;;11.40;99.90;;;;;;5095377;28;20485;-57
2022/04/25 02:56:07;;;;;;;12.18;2.85;;;11.40;99.90;;;;;;5095402;28;20046;-57
2022/04/25 02:58:35;;;;;;;13.10;2.65;;;11.40;99.90;;;;;;5095150;28;20088;-57
2022/04/25 03:01:04;;;;;;;11.15;2.47;;;11.40;99.90;;;;;;5094439;28;20422;-57
2022/04/25 03:03:32;;;;;;;12.23;2.40;;;11.50;99.90;;;;;;5075180;28;20048;-57
2022/04/25 03:05:59;;;;;;;9.25;2.60;;;11.50;99.90;;;;;;5074894;28;20025;-57
2022/04/25 03:08:25;;;;;;;13.82;2.92;;;11.50;99.90;;;;;;5074501;28;20036;-57
2022/04/25 03:10:52;;;;;;;11.25;2.78;;;11.50;99.90;;;;;;5091408;28;20539;-57
2022/04/25 03:13:20;;;;;;;9.98;2.47;;;11.60;99.90;;;;;;5094880;28;20028;-57
2022/04/25 03:15:47;;;;;;;12.50;2.55;;;11.60;99.90;;;;;;5094821;28;20032;-57
2022/04/25 03:18:16;;;;;;;12.60;2.95;;;11.60;99.90;;;;;;5095011;28;20032;-57
2022/04/25 03:20:48;;;;;;;15.50;2.88;;;11.50;99.90;;;;;;5094725;28;20073;-57
2022/04/25 03:23:15;;;;;;;12.93;2.38;;;11.50;99.90;;;;;;5094799;28;20032;-56
2022/04/25 03:25:41;;;;;;;15.35;2.63;;;11.50;99.90;;;;;;5094670;28;20046;-56
2022/04/25 03:28:07;;;;;;;9.32;2.42;;;11.60;99.90;;;;;;5093717;28;20032;-57
2022/04/25 03:30:33;;;;;;;11.68;2.65;;;11.60;99.90;;;;;;5094725;28;20031;-56
2022/04/25 03:32:59;;;;;;;10.68;2.50;;;11.60;99.90;;;;;;5094769;28;20087;-56
2022/04/25 03:35:26;;;;;;;14.95;3.58;;;11.50;99.90;;;;;;5094629;28;20020;-56
2022/04/25 03:37:52;;;;;;;13.25;2.85;;;11.50;99.90;;;;;;5094528;28;20028;-57
2022/04/25 03:40:19;;;;;;;15.48;3.05;;;11.50;99.90;;;;;;5094667;28;20036;-56
2022/04/25 03:42:45;;;;;;;16.75;3.63;;;11.50;99.90;;;;;;5094469;28;20498;-57
2022/04/25 03:45:18;;;;;;;11.65;3.25;;;11.40;99.90;;;;;;5094510;28;20043;-57
2022/04/25 03:47:45;;;;;;;14.32;4.82;;;11.40;99.90;;;;;;5094533;28;20032;-57
2022/04/25 03:50:13;;;;;;;10.57;4.28;;;11.40;99.90;;;;;;5094612;28;20020;-57
2022/04/25 03:52:42;;;;;;;8.50;3.30;;;11.40;99.90;;;;;;5094453;28;20028;-57
2022/04/25 03:58:01;;;;;;;11.77;4.07;;;11.20;99.90;;;;;;5094369;28;20063;-57
2022/04/25 04:00:27;;;;;;;14.68;4.60;;;11.20;99.90;;;;;;5094375;28;20034;-56
2022/04/25 04:02:53;;;;;;;21.73;7.00;;;11.10;99.90;;;;;;5078263;28;20029;-57
2022/04/25 04:05:20;;;;;;;20.13;7.18;;;11.10;99.90;;;;;;5074081;28;20032;-57
2022/04/25 04:07:48;;;;;;;20.38;6.15;;;11.10;99.90;;;;;;5073944;28;20043;-57
2022/04/25 04:10:16;;;;;;;19.15;6.50;;;11.00;99.90;;;;;;5089542;28;20024;-57
2022/04/25 04:12:42;;;;;;;15.30;6.65;;;11.00;99.90;;;;;;5094261;28;20120;-57
2022/04/25 04:15:08;;;;;;;15.57;6.18;;;11.00;99.90;;;;;;5094183;28;20032;-56
2022/04/25 04:17:35;;;;;;;18.40;6.25;;;10.90;99.90;;;;;;5094267;28;20032;-57
2022/04/25 04:20:03;;;;;;;19.15;7.65;;;10.90;99.90;;;;;;5093877;28;20035;-57
2022/04/25 04:22:30;;;;;;;20.08;7.88;;;10.90;99.90;;;;;;5094169;28;20512;-57
2022/04/25 04:25:01;;;;;;;20.58;8.35;;;10.90;99.90;;;;;;5094110;28;20026;-57
2022/04/25 04:27:31;;;;;;;17.73;8.32;;;10.80;99.90;;;;;;5093948;28;20494;-57
2022/04/25 04:30:07;;;;;;;21.83;7.88;;;10.70;99.90;;;;;;5094345;28;20024;-57
2022/04/25 04:32:34;;;;;;;19.65;8.60;;;10.70;99.90;;;;;;5094204;28;20400;-57
2022/04/25 04:35:01;;;;;;;18.30;7.75;;;10.70;99.90;;;;;;5093992;28;20028;-56
2022/04/25 04:37:33;;;;;;;17.92;10.13;;;10.70;99.90;;;;;;5094066;28;20024;-57
2022/04/25 04:42:44;;;;;;;20.65;10.90;;;10.70;99.90;;;;;;5097761;28;20035;-57
2022/04/25 04:45:11;;;;;;;21.10;8.25;;;10.80;99.90;;;;;;5097912;28;20038;-57
2022/04/25 04:47:38;;;;;;;21.25;9.10;;;10.80;99.90;;;;;;5097820;28;20032;-57
2022/04/25 04:50:07;;;;;;;25.63;9.45;;;10.90;99.90;;;;;;5097673;28;20035;-57
2022/04/25 04:52:33;;;;;;;24.52;9.30;;;10.90;99.90;;;;;;5097573;28;20531;-57
2022/04/25 04:54:59;;;;;;;19.52;9.10;;;10.90;99.90;;;;;;5097451;28;20028;-57
2022/04/25 04:57:25;;;;;;;27.13;8.85;;;11.00;99.90;;;;;;5097658;28;20020;-57
2022/04/25 04:59:51;;;;;;;19.92;8.15;;;11.10;99.90;;;;;;5097491;28;20372;-57
2022/04/25 05:02:17;;;;;;;25.20;8.48;;;11.10;99.90;;;;;;5086202;28;20159;-57
2022/04/25 05:04:46;;;;;;;26.35;8.18;;;11.10;99.90;;;;;;5075571;28;20032;-57
2022/04/25 05:07:12;;;;;;;27.10;8.23;;;11.20;99.90;;;;;;5065518;28;20028;-57
2022/04/25 05:09:38;;;;;;;34.67;9.25;;;11.40;99.90;;;;;;5071769;28;20499;-57
2022/04/25 05:12:05;;;;;;;42.40;10.20;;;11.60;99.90;;;;;;5064881;28;20066;-57
2022/04/25 05:14:31;;;;;;;38.22;10.10;;;11.80;99.90;;;;;;5071555;28;20029;-57
2022/04/25 05:16:57;;;;;;;40.65;9.70;;;11.90;99.90;;;;;;5064357;28;20078;-57
2022/04/25 05:19:23;;;;;;;46.10;10.10;;;12.00;99.90;;;;;;5069905;28;20501;-57
2022/04/25 05:21:49;;;;;;;33.67;10.23;;;12.10;99.90;;;;;;5072987;28;20079;-57
2022/04/25 05:24:15;;;;;;;32.75;11.10;;;12.20;99.90;;;;;;5066353;28;20036;-57
2022/04/25 05:26:41;;;;;;;45.28;10.55;;;12.30;99.90;;;;;;5066147;28;20478;-57
2022/04/25 05:29:07;;;;;;;46.05;10.70;;;12.30;99.90;;;;;;5062596;28;20045;-57
2022/04/25 05:31:33;;;;;;;34.70;11.75;;;12.40;99.90;;;;;;5067222;28;20025;-57
2022/04/25 05:34:02;;;;;;;28.80;11.27;;;12.40;99.90;;;;;;5071884;28;20664;-57
2022/04/25 05:36:28;;;;;;;31.25;10.25;;;12.50;99.90;;;;;;5071111;28;20466;-57
2022/04/25 05:38:54;;;;;;;25.17;9.75;;;12.70;99.90;;;;;;5074808;28;20024;-57
2022/04/25 05:41:20;;;;;;;27.40;11.32;;;12.90;99.90;;;;;;5076489;28;20592;-57
2022/04/25 05:43:47;;;;;;;28.75;10.68;;;13.20;99.90;;;;;;5070844;28;20029;-57
2022/04/25 05:46:13;;;;;;;28.50;10.27;;;13.30;99.90;;;;;;5073051;28;20063;-57
2022/04/25 05:54:28;;;;;;;36.22;11.93;;;13.50;99.90;;;;;;4977536;28;20034;-57
2022/04/25 05:56:54;;;;;;;21.67;9.02;;;13.60;99.90;;;;;;4987348;28;20049;-57
2022/04/25 05:59:20;;;;;;;26.00;8.82;;;13.80;99.90;;;;;;4974561;28;20118;-57
2022/04/25 06:01:46;;;;;;;27.10;10.45;;;14.00;99.90;;;;;;4982015;28;20683;-57
2022/04/25 06:04:12;;;;;;;33.33;10.32;;;14.20;99.90;;;;;;4987633;28;20067;-57
2022/04/25 06:06:38;;;;;;;28.02;8.65;;;14.40;99.90;;;;;;4987832;28;20424;-57
2022/04/25 06:09:04;;;;;;;31.50;8.75;;;14.50;99.90;;;;;;4993470;28;20210;-57
2022/04/25 06:11:32;;;;;;;23.00;8.55;;;14.70;99.90;;;;;;4992812;28;20117;-58
2022/04/25 06:14:00;;;;;;;32.40;11.05;;;14.80;99.90;;;;;;4977242;28;20038;-58
2022/04/25 06:16:27;;;;;;;24.08;7.53;;;15.00;99.90;;;;;;4993338;28;20030;-58
2022/04/25 06:18:53;;;;;;;26.77;6.80;;;15.20;99.90;;;;;;4980917;28;20117;-58
2022/04/25 06:21:19;;;;;;;20.05;5.47;;;15.40;99.90;;;;;;4976648;28;20133;-58
2022/04/25 06:23:45;;;;;;;18.00;5.13;;;15.50;99.90;;;;;;4974438;28;20113;-56
2022/04/25 06:26:11;;;;;;;22.63;5.55;;;15.40;99.90;;;;;;4974785;28;20039;-58
2022/04/25 06:28:37;;;;;;;30.58;7.10;;;15.30;99.90;;;;;;5023133;28;20049;-58
2022/04/25 06:31:03;;;;;;;16.33;4.65;;;15.40;99.90;;;;;;5058125;28;20039;-58
2022/04/25 06:33:29;;;;;;;12.05;3.70;;;15.30;99.90;;;;;;5067543;28;20025;-58
2022/04/25 06:35:55;;;;;;;26.10;5.13;;;15.40;99.90;;;;;;5067852;28;20025;-58
2022/04/25 06:38:21;;;;;;;19.25;6.00;;;15.70;99.90;;;;;;5067563;28;20500;-59
2022/04/25 06:40:47;;;;;;;14.68;4.40;;;16.00;99.90;;;;;;5075588;28;20103;-58
2022/04/25 06:43:15;;;;;;;22.13;5.68;;;16.20;99.90;;;;;;5075718;28;20067;-58
2022/04/25 06:45:42;;;;;;;12.07;3.67;;;16.30;99.90;;;;;;5072531;28;20032;-58
2022/04/25 06:48:12;;;;;;;11.40;4.03;;;16.60;99.90;;;;;;5066423;28;20055;-58
2022/04/25 06:50:39;;;;;;;17.48;4.53;;;16.90;99.90;;;;;;5063186;28;20024;-56
2022/04/25 06:53:14;;;;;;;18.80;3.92;;;17.30;99.90;;;;;;5083582;28;20126;-57
2022/04/25 06:55:45;;;;;;;12.70;3.92;;;17.60;99.90;;;;;;5071073;28;20020;-56
2022/04/25 06:58:12;;;;;;;9.90;2.40;;;17.70;99.30;;;;;;5074275;28;20021;-56
2022/04/25 07:00:38;;;;;;;8.55;2.15;;;18.00;95.20;;;;;;5071499;28;20028;-56
2022/04/25 07:03:06;;;;;;;5.95;1.77;;;18.20;96.70;;;;;;5058472;28;20383;-57
2022/04/25 07:05:32;;;;;;;3.17;1.58;;;18.40;95.60;;;;;;5069269;28;20040;-57
2022/04/25 07:07:58;;;;;;;9.88;2.00;;;18.30;92.30;;;;;;5067474;28;20028;-57
2022/04/25 07:10:24;;;;;;;6.70;2.38;;;18.50;88.10;;;;;;5070226;28;20044;-57
2022/04/25 07:12:50;;;;;;;7.15;1.80;;;18.60;86.80;;;;;;5064570;28;20013;-57
2022/04/25 07:15:16;;;;;;;7.72;2.50;;;18.60;91.80;;;;;;5072876;28;20041;-57
2022/04/25 07:17:42;;;;;;;5.45;1.63;;;18.60;86.50;;;;;;5070919;28;20062;-56
2022/04/25 07:20:08;;;;;;;7.38;1.52;;;18.50;84.20;;;;;;5073951;28;20108;-56
2022/04/25 07:31:20;;;;;;;8.52;1.80;;;18.90;75.90;;;;;;5028363;28;20770;-57
2022/04/25 07:33:46;;;;;;;2.03;0.77;;;19.40;69.10;;;;;;5037612;28;20676;-56
2022/04/25 07:36:15;;;;;;;5.63;1.08;;;19.30;61.90;;;;;;5052345;28;20116;-56
2022/04/25 07:38:41;;;;;;;5.38;0.80;;;19.40;65.60;;;;;;5035277;28;20037;-56
2022/04/25 07:41:07;;;;;;;6.53;1.00;;;19.20;63.50;;;;;;5038573;28;20060;-57
2022/04/25 07:43:34;;;;;;;7.50;1.60;;;19.60;68.30;;;;;;5026148;28;20053;-56
2022/04/25 07:46:01;;;;;;;2.03;0.68;;;19.60;65.30;;;;;;5046274;28;20609;-56
2022/04/25 07:48:27;;;;;;;2.05;0.60;;;19.70;59.40;;;;;;5040059;28;20025;-56
2022/04/25 07:50:53;;;;;;;4.00;0.80;;;19.80;60.10;;;;;;5046900;28;20124;-56
2022/04/25 07:53:20;;;;;;;2.20;0.65;;;20.00;58.10;;;;;;5043522;28;20457;-56
2022/04/25 07:55:45;;;;;;;5.00;0.90;;;19.90;55.40;;;;;;5048770;28;20025;-57
2022/04/25 07:58:12;;;;;;;2.08;0.85;;;20.00;63.10;;;;;;5065904;28;20039;-57
2022/04/25 08:00:41;;;;;;;2.33;0.70;;;20.50;57.00;;;;;;5085956;28;20033;-57
2022/04/25 08:03:08;;;;;;;2.17;0.60;;;20.40;55.00;;;;;;5091300;28;20024;-57
2022/04/25 08:05:34;;;;;;;5.45;1.00;;;20.20;54.40;;;;;;5068622;28;20101;-56
2022/04/25 08:08:00;;;;;;;1.75;0.60;;;19.80;55.60;;;;;;5063438;28;20032;-57
2022/04/25 08:10:26;;;;;;;3.38;0.52;;;19.20;57.40;;;;;;5073096;28;20025;-57
2022/04/25 08:18:21;;;;;;;2.22;0.40;;;20.00;57.20;;;;;;5077729;28;20057;-57
2022/04/25 08:20:48;;;;;;;7.95;0.90;;;20.00;54.90;;;;;;5078018;28;20059;-56
2022/04/25 08:23:14;;;;;;;7.38;1.13;;;19.40;55.60;;;;;;5076314;28;20075;-56
2022/04/25 08:25:41;;;;;;;9.65;1.42;;;19.40;57.60;;;;;;5070765;28;20459;-57
2022/04/25 08:28:10;;;;;;;9.10;1.30;;;19.80;59.30;;;;;;5076469;28;20036;-56
2022/04/25 08:30:37;;;;;;;3.10;0.60;;;20.30;61.90;;;;;;5078348;28;20458;-57
2022/04/25 08:33:04;;;;;;;5.93;1.25;;;20.70;56.60;;;;;;5077200;28;20028;-56
2022/04/25 08:35:30;;;;;;;5.05;0.80;;;20.80;55.00;;;;;;5068087;28;20085;-56
2022/04/25 08:37:56;;;;;;;7.65;0.90;;;21.10;54.10;;;;;;5076684;28;20021;-57
2022/04/25 08:40:22;;;;;;;12.38;2.13;;;21.20;54.10;;;;;;5075216;28;20031;-56
2022/04/25 08:42:48;;;;;;;6.07;1.40;;;21.20;54.70;;;;;;5074982;28;20037;-56
2022/04/25 08:45:15;;;;;;;3.90;0.80;;;21.30;51.60;;;;;;5057122;28;20056;-56
2022/04/25 08:47:48;;;;;;;10.38;1.75;;;21.60;50.50;;;;;;5065332;28;20033;-56
2022/04/25 08:50:17;;;;;;;4.80;1.10;;;21.10;50.50;;;;;;5074947;28;20441;-56
2022/04/25 08:52:44;;;;;;;2.92;0.68;;;21.70;51.80;;;;;;5070587;28;20025;-56
2022/04/25 08:55:11;;;;;;;7.82;1.67;;;21.50;46.10;;;;;;5076709;28;20041;-57
2022/04/25 08:57:38;;;;;;;6.30;1.73;;;21.60;49.80;;;;;;5071642;28;20020;-57
2022/04/25 09:00:06;;;;;;;13.70;2.55;;;22.10;49.00;;;;;;5069091;28;20639;-57
2022/04/25 09:02:34;;;;;;;4.18;0.90;;;21.90;48.80;;;;;;5077644;28;20758;-57
2022/04/25 09:05:01;;;;;;;2.85;0.68;;;21.70;48.40;;;;;;5078091;28;20029;-57
2022/04/25 09:07:28;;;;;;;5.50;0.65;;;21.20;46.20;;;;;;5082288;28;20142;-57
2022/04/25 09:09:54;;;;;;;3.95;0.65;;;21.20;47.30;;;;;;5085048;28;20032;-57
2022/04/25 09:12:20;;;;;;;5.20;0.80;;;21.40;48.20;;;;;;5072712;28;20032;-57
2022/04/25 09:14:47;;;;;;;2.38;0.70;;;21.90;49.20;;;;;;5069209;28;20017;-56
2022/04/25 09:17:13;;;;;;;4.72;1.05;;;22.10;49.20;;;;;;5080886;28;20040;-56
2022/04/25 09:19:40;;;;;;;3.70;0.95;;;22.40;47.00;;;;;;5084689;28;20108;-57
2022/04/25 09:22:08;;;;;;;2.53;0.75;;;22.40;47.00;;;;;;5078797;28;20037;-56
2022/04/25 09:24:36;;;;;;;8.55;1.70;;;22.30;46.80;;;;;;5071207;28;20025;-56
2022/04/25 09:27:08;;;;;;;1.95;0.80;;;22.40;48.80;;;;;;5070336;28;20173;-56
2022/04/25 09:29:38;;;;;;;8.55;0.88;;;22.50;47.90;;;;;;5070185;28;20663;-57
2022/04/25 09:32:06;;;;;;;7.53;1.88;;;22.30;45.40;;;;;;5067462;28;20035;-57
2022/04/25 09:37:18;;;;;;;7.75;1.10;;;22.60;46.00;;;;;;5069306;28;20154;-57
2022/04/25 09:39:44;;;;;;;5.95;0.90;;;22.70;47.90;;;;;;5066322;28;20135;-57
2022/04/25 09:42:11;;;;;;;9.80;4.22;;;23.00;46.00;;;;;;5065977;28;20441;-57
2022/04/25 09:44:57;;;;;;;1.90;0.70;;;23.10;45.50;;;;;;5067305;28;20091;-57
2022/04/25 09:47:30;;;;;;;1.48;0.68;;;23.20;45.20;;;;;;5062898;28;20120;-56
2022/04/25 09:50:07;;;;;;;11.93;1.58;;;22.80;44.40;;;;;;5070921;28;20629;-56
2022/04/25 09:52:53;;;;;;;3.35;1.10;;;23.10;45.30;;;;;;5070058;28;20032;-56
2022/04/25 09:55:21;;;;;;;5.72;1.40;;;23.40;46.50;;;;;;5071272;28;20037;-57
2022/04/25 09:57:49;;;;;;;3.80;1.30;;;24.10;45.80;;;;;;5069625;28;20029;-56
2022/04/25 10:00:38;;;;;;;5.13;0.88;;;24.10;43.00;;;;;;5075034;28;20040;-57
2022/04/25 10:03:05;;;;;;;7.03;1.08;;;23.40;43.30;;;;;;5075590;28;20111;-57
2022/04/25 10:05:45;;;;;;;1.73;0.52;;;23.00;43.40;;;;;;5067687;28;20033;-57
2022/04/25 10:08:16;;;;;;;3.80;1.65;;;23.20;42.50;;;;;;5070299;28;20039;-57
2022/04/25 10:10:49;;;;;;;2.65;1.00;;;23.50;42.60;;;;;;5071500;28;20066;-57
2022/04/25 10:13:17;;;;;;;1.63;0.75;;;23.40;43.30;;;;;;5064775;28;20024;-56
2022/04/25 10:15:47;;;;;;;5.43;0.80;;;23.20;43.10;;;;;;5066815;28;20024;-57
2022/04/25 10:18:14;;;;;;;6.00;1.42;;;23.70;43.50;;;;;;5064897;28;20047;-57
2022/04/25 10:20:42;;;;;;;1.50;0.50;;;24.20;42.80;;;;;;5060574;28;20068;-57
2022/04/25 10:23:11;;;;;;;10.52;2.15;;;23.80;41.20;;;;;;5052384;28;20103;-56
2022/04/25 10:25:38;;;;;;;6.15;1.17;;;23.70;41.50;;;;;;5070439;28;20044;-57
2022/04/25 10:28:13;;;;;;;21.20;3.63;;;24.20;44.50;;;;;;5053904;28;20056;-57
2022/04/25 10:30:45;;;;;;;9.07;2.03;;;24.90;41.30;;;;;;5061842;28;20077;-56
2022/04/25 10:33:22;;;;;;;40.65;6.85;;;25.20;40.30;;;;;;5073394;28;20150;-56
2022/04/25 10:35:50;;;;;;;6.97;1.20;;;24.80;39.80;;;;;;5071744;28;20538;-56
2022/04/25 10:38:48;;;;;;;9.00;1.60;;;25.10;39.80;;;;;;5065684;28;20036;-56
2022/04/25 10:44:20;;;;;;;9.63;0.95;;;24.70;39.20;;;;;;5066847;28;20025;-56
2022/04/25 10:47:06;;;;;;;7.90;1.55;;;25.00;40.90;;;;;;5052699;28;20039;-56
2022/04/25 10:49:59;;;;;;;4.63;1.05;;;25.40;39.80;;;;;;5066468;28;20090;-57
2022/04/25 10:52:42;;;;;;;6.25;1.67;;;25.50;37.00;;;;;;5050630;28;20517;-57
2022/04/25 10:55:31;;;;;;;10.13;1.10;;;25.20;39.00;;;;;;5075520;28;20025;-57
2022/04/25 10:58:03;;;;;;;16.38;2.90;;;25.80;38.00;;;;;;5057354;28;20043;-56
2022/04/25 11:00:41;;;;;;;7.45;0.60;;;25.80;37.70;;;;;;5063260;28;20501;-57
2022/04/25 11:03:12;;;;;;;13.50;2.40;;;26.20;37.80;;;;;;5071579;28;20056;-57
2022/04/25 11:05:40;;;;;;;3.33;1.02;;;26.60;37.80;;;;;;5068239;28;20024;-57
2022/04/25 11:08:23;;;;;;;7.38;1.00;;;26.60;36.50;;;;;;5071025;28;20059;-56
2022/04/25 11:10:51;;;;;;;2.65;0.40;;;26.60;35.20;;;;;;5072098;28;20115;-57
2022/04/25 11:13:18;;;;;;;4.57;1.17;;;25.70;34.60;;;;;;5063692;28;20045;-56
2022/04/25 11:15:48;;;;;;;4.20;0.70;;;26.00;35.00;;;;;;5061358;28;20491;-57
2022/04/25 11:18:38;;;;;;;4.82;0.50;;;26.00;35.70;;;;;;5081841;28;20568;-56
2022/04/25 11:21:12;;;;;;;8.32;1.77;;;26.40;34.10;;;;;;5059990;28;20041;-57
2022/04/25 11:23:44;;;;;;;3.28;0.90;;;26.30;35.00;;;;;;5073500;28;20028;-57
2022/04/25 11:26:23;;;;;;;10.43;1.23;;;26.20;35.00;;;;;;5065416;28;20032;-57
2022/04/25 11:28:58;;;;;;;1.90;0.40;;;25.70;35.30;;;;;;5046782;28;20093;-57
2022/04/25 11:31:36;;;;;;;11.48;1.63;;;26.30;36.20;;;;;;5073984;28;20470;-57
2022/04/25 11:34:05;;;;;;;5.25;0.80;;;25.50;34.10;;;;;;5072035;28;20234;-57
2022/04/25 11:36:38;;;;;;;10.65;2.05;;;25.10;37.00;;;;;;5073312;28;20040;-57
2022/04/25 11:41:50;;;;;;;3.25;0.90;;;25.50;35.50;;;;;;5070584;28;20036;-57
2022/04/25 11:44:16;;;;;;;4.55;1.20;;;25.30;35.70;;;;;;5072681;28;20043;-56
2022/04/25 11:46:53;;;;;;;7.05;1.17;;;25.60;35.20;;;;;;5068822;28;20036;-57
2022/04/25 11:49:32;;;;;;;3.28;1.30;;;26.00;34.50;;;;;;5071806;28;20032;-57
2022/04/25 11:52:01;;;;;;;11.35;1.15;;;25.60;33.70;;;;;;5074130;28;20027;-56
2022/04/25 11:54:34;;;;;;;5.10;1.20;;;26.00;34.70;;;;;;5063842;28;20053;-57
2022/04/25 11:57:02;;;;;;;4.57;1.42;;;26.00;35.60;;;;;;5048742;28;20025;-58
2022/04/25 11:59:28;;;;;;;8.93;1.95;;;25.50;35.20;;;;;;5067586;28;20029;-57
2022/04/25 12:01:58;;;;;;;4.20;1.45;;;25.60;36.90;;;;;;5070487;28;20028;-57
2022/04/25 12:04:35;;;;;;;3.00;1.08;;;25.70;36.90;;;;;;5071205;28;20482;-57
2022/04/25 12:07:04;;;;;;;10.52;2.28;;;25.90;36.30;;;;;;5069922;28;20519;-58
2022/04/25 12:15:34;;;;;;;1.30;0.40;;;26.20;35.50;;;;;;5067031;28;20036;-57
2022/04/25 12:18:14;;;;;;;10.15;1.80;;;26.20;34.60;;;;;;5066344;28;20490;-57
2022/04/25 12:20:44;;;;;;;1.70;0.60;;;26.60;34.00;;;;;;5063813;28;20040;-57
2022/04/25 12:23:23;;;;;;;3.30;1.30;;;26.30;33.10;;;;;;5063944;28;20037;-57
2022/04/25 12:25:50;;;;;;;3.13;0.73;;;25.50;33.10;;;;;;5059500;28;20280;-58
2022/04/25 12:28:20;;;;;;;6.63;1.67;;;26.10;36.80;;;;;;5059749;28;20055;-57
2022/04/25 12:30:54;;;;;;;8.23;1.52;;;25.70;34.80;;;;;;5061620;28;20111;-57
2022/04/25 12:33:33;;;;;;;4.93;1.52;;;25.60;36.30;;;;;;5065773;28;20037;-57
2022/04/25 12:36:20;;;;;;;3.22;1.00;;;26.20;36.20;;;;;;5067481;28;20025;-57
2022/04/25 12:39:13;;;;;;;10.02;2.25;;;26.00;34.90;;;;;;5070163;28;20033;-57
2022/04/25 12:42:00;;;;;;;5.72;1.63;;;25.80;34.60;;;;;;5068921;28;20390;-58
2022/04/25 12:44:28;;;;;;;12.10;5.20;;;25.80;35.80;;;;;;5082610;28;20108;-58
2022/04/25 12:47:03;;;;;;;2.35;1.13;;;26.30;35.70;;;;;;5064836;28;20432;-58
2022/04/25 12:49:34;;;;;;;12.27;3.00;;;26.00;34.00;;;;;;5061753;28;20045;-57
2022/04/25 12:52:01;;;;;;;5.18;1.60;;;25.10;34.00;;;;;;5073499;28;20067;-57
2022/04/25 12:54:32;;;;;;;14.90;2.67;;;24.50;35.80;;;;;;5054294;28;20033;-58
2022/04/25 12:57:15;;;;;;;11.23;2.67;;;24.30;36.80;;;;;;5066789;28;20025;-57
2022/04/25 12:59:45;;;;;;;10.23;2.13;;;24.30;37.40;;;;;;5064030;28;20100;-57
2022/04/25 13:02:17;;;;;;;39.65;6.03;;;24.50;38.00;;;;;;5076559;28;20098;-57
2022/04/25 13:04:50;;;;;;;3.90;0.65;;;24.10;38.20;;;;;;5072211;28;20046;-57
2022/04/25 13:07:18;;;;;;;9.00;1.20;;;24.00;38.40;;;;;;5054052;28;20025;-57
2022/04/25 13:09:47;;;;;;;2.40;0.57;;;24.00;39.00;;;;;;5067823;28;20024;-57
2022/04/25 13:12:17;;;;;;;8.30;1.67;;;24.10;38.10;;;;;;5071775;28;20057;-57
2022/04/25 13:14:45;;;;;;;5.53;0.85;;;23.80;39.10;;;;;;5079098;28;20112;-57
2022/04/25 13:17:12;;;;;;;8.05;1.23;;;23.40;39.60;;;;;;5087535;28;20025;-57
2022/04/25 13:19:39;;;;;;;5.28;0.80;;;23.30;39.80;;;;;;5093252;28;20027;-57
2022/04/25 13:22:05;;;;;;;6.88;1.35;;;23.20;41.00;;;;;;5089278;28;20402;-57
2022/04/25 13:24:32;;;;;;;4.63;0.80;;;23.20;39.90;;;;;;5071002;28;20033;-57
2022/04/25 13:26:58;;;;;;;14.57;2.95;;;23.30;39.70;;;;;;5085050;28;20055;-57
2022/04/25 13:29:24;;;;;;;3.83;0.90;;;23.20;40.00;;;;;;5069053;28;20064;-57